createdAt,value
2023-03-10T00:01:32.869Z,5.73
2023-03-10T00:04:01.768Z,5.87
2023-03-10T00:06:32.928Z,6.27
2023-03-10T00:09:00.238Z,5.67
2023-03-10T00:11:27.902Z,6.50
2023-03-10T00:13:54.862Z,6.30
2023-03-10T00:16:28.304Z,6.83
2023-03-10T00:18:55.691Z,5.93
2023-03-10T00:21:25.474Z,6.67
2023-03-10T00:23:52.930Z,6.37
2023-03-10T00:26:21.626Z,6.43
2023-03-10T00:28:48.990Z,6.37
2023-03-10T00:31:22.119Z,5.97
2023-03-10T00:33:50.404Z,6.43
2023-03-10T00:36:23.704Z,6.33
2023-03-10T00:38:52.548Z,5.43
2023-03-10T00:41:25.120Z,6.13
2023-03-10T00:43:52.670Z,6.20
2023-03-10T00:46:20.406Z,5.63
2023-03-10T00:48:47.616Z,6.63
2023-03-10T00:51:14.927Z,4.77
2023-03-10T00:53:42.330Z,5.40
2023-03-10T00:56:16.512Z,6.87
2023-03-10T00:58:44.563Z,7.10
2023-03-10T01:01:21.739Z,5.67
2023-03-10T01:03:51.358Z,6.00
2023-03-10T01:06:18.776Z,5.60
2023-03-10T01:08:45.745Z,6.40
2023-03-10T01:11:15.695Z,6.93
2023-03-10T01:13:43.333Z,7.10
2023-03-10T01:16:10.929Z,6.90
2023-03-10T01:18:38.053Z,7.03
2023-03-10T01:21:06.728Z,7.23
2023-03-10T01:23:33.732Z,6.90
2023-03-10T01:26:01.009Z,7.70
2023-03-10T01:28:27.990Z,7.23
2023-03-10T01:30:55.229Z,7.57
2023-03-10T01:33:22.235Z,7.90
2023-03-10T01:35:49.560Z,8.20
2023-03-10T01:38:16.528Z,7.97
2023-03-10T01:40:49.349Z,7.10
2023-03-10T01:43:22.416Z,8.50
2023-03-10T01:45:52.635Z,9.13
2023-03-10T01:48:23.765Z,8.57
2023-03-10T01:50:55.418Z,8.27
2023-03-10T01:53:24.355Z,8.23
2023-03-10T01:56:03.871Z,8.53
2023-03-10T01:58:38.219Z,8.63
2023-03-10T02:01:06.861Z,9.27
2023-03-10T02:03:40.021Z,9.27
2023-03-10T02:06:11.672Z,9.00
2023-03-10T02:08:45.418Z,10.03
2023-03-10T02:11:14.219Z,10.30
2023-03-10T02:13:41.173Z,8.30
2023-03-10T02:16:09.229Z,8.73
2023-03-10T02:18:36.211Z,8.80
2023-03-10T02:21:12.631Z,10.07
2023-03-10T02:24:08.860Z,9.70
2023-03-10T02:26:58.307Z,9.00
2023-03-10T02:29:52.517Z,9.73
2023-03-10T02:32:26.926Z,9.37
2023-03-10T02:34:54.021Z,9.70
2023-03-10T02:37:24.450Z,8.50
2023-03-10T02:39:51.439Z,10.43
2023-03-10T02:42:19.652Z,10.67
2023-03-10T02:44:47.774Z,11.13
2023-03-10T02:47:16.098Z,10.77
2023-03-10T02:49:43.369Z,10.20
2023-03-10T02:52:31.226Z,10.07
2023-03-10T02:54:58.245Z,10.57
2023-03-10T02:57:25.467Z,11.27
2023-03-10T02:59:52.534Z,11.47
2023-03-10T03:02:19.753Z,11.40
2023-03-10T03:04:46.712Z,10.50
2023-03-10T03:07:14.069Z,10.57
2023-03-10T03:09:40.976Z,9.47
2023-03-10T03:12:08.673Z,10.20
2023-03-10T03:14:35.673Z,10.30
2023-03-10T03:17:03.865Z,11.03
2023-03-10T03:19:30.924Z,10.30
2023-03-10T03:21:58.143Z,11.13
2023-03-10T03:24:25.249Z,9.87
2023-03-10T03:26:52.596Z,10.40
2023-03-10T03:29:19.606Z,10.27
2023-03-10T03:31:46.975Z,11.40
2023-03-10T03:34:15.551Z,10.77
2023-03-10T03:36:42.820Z,10.70
2023-03-10T03:39:09.960Z,10.23
2023-03-10T03:41:37.190Z,10.83
2023-03-10T03:44:04.403Z,10.00
2023-03-10T03:46:31.777Z,9.93
2023-03-10T03:48:58.782Z,9.83
2023-03-10T03:51:26.041Z,10.43
2023-03-10T03:53:53.077Z,8.93
2023-03-10T03:56:20.417Z,11.13
2023-03-10T03:58:47.346Z,8.60
2023-03-10T04:01:14.767Z,9.47
2023-03-10T04:03:41.834Z,10.37
2023-03-10T04:06:09.620Z,12.03
2023-03-10T04:08:36.633Z,10.63
2023-03-10T04:11:04.106Z,9.60
2023-03-10T04:13:31.075Z,11.30
2023-03-10T04:15:59.465Z,10.73
2023-03-10T04:18:27.086Z,10.97
2023-03-10T04:20:54.346Z,10.63
2023-03-10T04:23:21.373Z,9.77
2023-03-10T04:25:49.253Z,10.10
2023-03-10T04:28:16.320Z,10.17
2023-03-10T04:30:45.220Z,11.77
2023-03-10T04:33:12.410Z,10.17
2023-03-10T04:35:42.037Z,9.77
2023-03-10T04:38:09.530Z,10.30
2023-03-10T04:40:36.879Z,10.13
2023-03-10T04:43:03.907Z,10.53
2023-03-10T04:45:31.711Z,9.67
2023-03-10T04:47:58.660Z,10.37
2023-03-10T04:50:26.391Z,11.07
2023-03-10T04:52:53.488Z,10.43
2023-03-10T04:55:20.776Z,10.27
2023-03-10T04:57:47.671Z,11.23
2023-03-10T05:00:15.297Z,11.53
2023-03-10T05:02:42.365Z,10.47
2023-03-10T05:05:11.033Z,11.50
2023-03-10T05:07:38.315Z,12.80
2023-03-10T05:10:06.894Z,11.13
2023-03-10T05:12:33.966Z,12.87
2023-03-10T05:15:01.259Z,12.30
2023-03-10T05:17:29.435Z,13.07
2023-03-10T05:19:58.194Z,11.73
2023-03-10T05:22:28.443Z,10.67
2023-03-10T05:24:55.667Z,13.20
2023-03-10T05:27:22.675Z,11.73
2023-03-10T05:29:49.921Z,12.10
2023-03-10T05:32:16.946Z,13.07
2023-03-10T05:34:44.193Z,12.53
2023-03-10T05:37:11.199Z,12.50
2023-03-10T05:39:38.433Z,13.50
2023-03-10T05:42:05.686Z,12.67
2023-03-10T05:44:33.441Z,13.67
2023-03-10T05:47:00.509Z,13.17
2023-03-10T05:49:28.313Z,15.20
2023-03-10T05:51:55.225Z,14.17
2023-03-10T05:54:22.808Z,14.17
2023-03-10T05:56:49.778Z,14.77
2023-03-10T05:59:17.316Z,14.40
2023-03-10T06:01:44.277Z,15.90
2023-03-10T06:04:11.635Z,16.23
2023-03-10T06:06:38.817Z,16.47
2023-03-10T06:09:06.430Z,17.80
2023-03-10T06:11:33.633Z,16.77
2023-03-10T06:14:00.845Z,17.97
2023-03-10T06:16:28.011Z,18.47
2023-03-10T06:18:56.823Z,17.53
2023-03-10T06:21:24.121Z,18.07
2023-03-10T06:23:51.358Z,18.87
2023-03-10T06:26:18.473Z,17.73
2023-03-10T06:28:46.983Z,20.00
2023-03-10T06:31:19.945Z,19.57
2023-03-10T06:33:47.465Z,18.97
2023-03-10T06:36:14.949Z,18.17
2023-03-10T06:38:42.841Z,20.53
2023-03-10T06:41:09.899Z,21.37
2023-03-10T06:43:37.581Z,20.37
2023-03-10T06:46:07.898Z,18.07
2023-03-10T06:48:36.939Z,19.33
2023-03-10T06:51:07.786Z,20.00
2023-03-10T06:53:35.206Z,19.27
2023-03-10T06:56:20.100Z,18.63
2023-03-10T06:58:48.493Z,20.67
2023-03-10T07:01:28.143Z,18.57
2023-03-10T07:03:56.523Z,19.77
2023-03-10T07:06:24.113Z,21.60
2023-03-10T07:08:52.578Z,20.23
2023-03-10T07:11:20.023Z,21.37
2023-03-10T07:13:48.025Z,21.73
2023-03-10T07:16:15.326Z,22.37
2023-03-10T07:18:42.870Z,20.37
2023-03-10T07:21:11.622Z,18.93
2023-03-10T07:23:39.425Z,20.30
2023-03-10T07:26:09.038Z,19.90
2023-03-10T07:28:37.867Z,18.87
2023-03-10T07:31:12.430Z,19.03
2023-03-10T07:33:40.380Z,20.40
2023-03-10T07:36:10.358Z,19.13
2023-03-10T07:38:37.760Z,17.60
2023-03-10T07:41:14.743Z,16.53
2023-03-10T07:43:42.088Z,19.43
2023-03-10T07:46:12.049Z,19.00
2023-03-10T07:48:39.979Z,20.67
2023-03-10T07:51:07.732Z,20.63
2023-03-10T07:53:36.062Z,21.03
2023-03-10T07:56:07.708Z,20.70
2023-03-10T07:58:35.706Z,21.83
2023-03-10T08:01:04.323Z,21.17
2023-03-10T08:03:34.083Z,20.40
2023-03-10T08:06:02.536Z,21.47
2023-03-10T08:08:29.897Z,19.83
2023-03-10T08:11:06.133Z,19.17
2023-03-10T08:13:33.841Z,19.37
2023-03-10T08:16:01.856Z,18.40
2023-03-10T08:18:30.734Z,18.40
2023-03-10T08:20:58.135Z,17.30
2023-03-10T08:23:25.866Z,18.43
2023-03-10T08:25:53.031Z,19.70
2023-03-10T08:28:20.357Z,18.03
2023-03-10T08:31:03.025Z,17.70
2023-03-10T08:33:32.029Z,18.73
2023-03-10T08:36:18.044Z,17.33
2023-03-10T08:38:45.942Z,19.17
2023-03-10T08:41:20.322Z,18.20
2023-03-10T08:43:49.374Z,16.60
2023-03-10T08:46:17.823Z,18.00
2023-03-10T08:48:45.174Z,17.13
2023-03-10T08:51:15.569Z,17.37
2023-03-10T08:53:46.650Z,17.13
2023-03-10T08:56:14.335Z,17.80
2023-03-10T08:58:42.038Z,17.60
2023-03-10T09:01:09.377Z,18.37
2023-03-10T09:03:39.657Z,18.83
2023-03-10T09:06:07.189Z,18.70
2023-03-10T09:08:34.569Z,19.50
2023-03-10T09:11:01.952Z,19.67
2023-03-10T09:13:29.332Z,19.80
2023-03-10T09:15:56.386Z,20.20
2023-03-10T09:18:23.868Z,20.00
2023-03-10T09:20:51.480Z,19.60
2023-03-10T09:23:19.039Z,18.53
2023-03-10T09:25:46.450Z,18.73
2023-03-10T09:28:13.769Z,18.40
2023-03-10T09:30:43.059Z,17.93
2023-03-10T09:33:19.294Z,17.80
2023-03-10T09:36:05.065Z,19.70
2023-03-10T09:38:33.083Z,18.47
2023-03-10T09:41:20.129Z,17.43
2023-03-10T09:43:55.703Z,18.00
2023-03-10T09:46:34.912Z,18.03
2023-03-10T09:49:23.188Z,17.70
2023-03-10T09:51:51.943Z,18.43
2023-03-10T09:54:22.242Z,18.13
2023-03-10T09:56:49.192Z,18.57
2023-03-10T09:59:34.494Z,16.93
2023-03-10T10:02:03.955Z,19.20
2023-03-10T10:04:38.082Z,18.43
2023-03-10T10:07:14.645Z,18.03
2023-03-10T10:09:56.967Z,18.60
2023-03-10T10:12:26.397Z,17.07
2023-03-10T10:15:07.689Z,19.20
2023-03-10T10:18:08.623Z,20.27
2023-03-10T10:21:06.062Z,18.97
2023-03-10T10:23:43.800Z,18.43
2023-03-10T10:26:17.988Z,19.03
2023-03-10T10:28:54.119Z,19.83
2023-03-10T10:31:24.622Z,19.73
2023-03-10T10:33:57.979Z,19.30
2023-03-10T10:36:29.452Z,19.37
2023-03-10T10:38:57.675Z,18.63
2023-03-10T10:41:33.772Z,19.90
2023-03-10T10:44:09.478Z,16.50
2023-03-10T10:46:36.867Z,17.83
2023-03-10T10:49:19.254Z,17.13
2023-03-10T10:52:19.156Z,17.87
2023-03-10T10:54:56.514Z,17.67
2023-03-10T10:57:31.372Z,16.93
2023-03-10T11:00:27.558Z,17.57
2023-03-10T11:02:55.686Z,18.37
2023-03-10T11:05:43.140Z,18.77
2023-03-10T11:08:32.980Z,17.83
2023-03-10T11:11:18.782Z,18.87
2023-03-10T11:14:16.406Z,17.00
2023-03-10T11:17:06.651Z,16.50
2023-03-10T11:20:12.866Z,17.40
2023-03-10T11:22:47.568Z,16.93
2023-03-10T11:25:38.246Z,17.57
2023-03-10T11:28:36.376Z,16.57
2023-03-10T11:31:41.358Z,15.90
2023-03-10T11:34:30.350Z,16.50
2023-03-10T11:37:01.166Z,15.90
2023-03-10T11:39:40.104Z,15.50
2023-03-10T11:42:26.268Z,15.97
2023-03-10T11:45:04.078Z,16.10
2023-03-10T11:47:51.708Z,16.70
2023-03-10T11:50:23.437Z,14.80
2023-03-10T11:52:53.401Z,16.50
2023-03-10T11:55:22.368Z,15.87
2023-03-10T11:57:57.211Z,13.13
2023-03-10T12:00:36.282Z,14.97
2023-03-10T12:03:19.015Z,16.53
2023-03-10T12:05:52.391Z,14.83
2023-03-10T12:08:22.626Z,14.27
2023-03-10T12:10:50.396Z,14.70
2023-03-10T12:13:30.779Z,13.07
2023-03-10T12:16:01.164Z,12.87
2023-03-10T12:18:28.888Z,11.87
2023-03-10T12:21:16.780Z,11.53
2023-03-10T12:23:50.357Z,11.20
2023-03-10T12:26:40.936Z,10.87
2023-03-10T12:29:20.680Z,9.63
2023-03-10T12:31:52.792Z,9.27
2023-03-10T12:34:27.886Z,9.40
2023-03-10T12:37:12.477Z,8.30
2023-03-10T12:39:44.041Z,9.43
2023-03-10T12:42:39.693Z,8.93
2023-03-10T12:45:34.102Z,8.53
2023-03-10T12:48:07.476Z,6.53
2023-03-10T12:50:52.807Z,7.60
2023-03-10T12:53:34.260Z,7.80
2023-03-10T12:56:13.486Z,7.53
2023-03-10T12:58:54.888Z,6.83
2023-03-10T13:01:25.470Z,6.03
2023-03-10T13:03:54.289Z,6.93
2023-03-10T13:06:36.919Z,6.27
2023-03-10T13:09:20.979Z,5.83
2023-03-10T13:11:55.052Z,5.63
2023-03-10T13:14:33.231Z,5.73
2023-03-10T13:17:01.737Z,5.93
2023-03-10T13:19:31.732Z,6.50
2023-03-10T13:21:59.146Z,5.67
2023-03-10T13:24:31.822Z,6.17
2023-03-10T13:27:19.687Z,6.00
2023-03-10T13:29:56.973Z,6.20
2023-03-10T13:32:25.489Z,6.30
2023-03-10T13:34:52.866Z,8.67
2023-03-10T13:37:20.138Z,5.90
2023-03-10T13:39:47.155Z,5.20
2023-03-10T13:42:40.908Z,5.83
2023-03-10T13:45:22.289Z,4.50
2023-03-10T13:47:51.320Z,5.00
2023-03-10T13:50:18.514Z,6.13
2023-03-10T13:52:54.788Z,4.70
2023-03-10T13:55:21.843Z,4.83
2023-03-10T13:57:50.822Z,4.43
2023-03-10T14:00:21.849Z,4.60
2023-03-10T14:02:50.724Z,4.23
2023-03-10T14:05:38.247Z,4.30
2023-03-10T14:08:06.612Z,5.40
2023-03-10T14:10:33.674Z,4.43
2023-03-10T14:13:00.994Z,4.77
2023-03-10T14:15:38.998Z,4.53
2023-03-10T14:18:09.445Z,4.53
2023-03-10T14:20:48.903Z,4.20
2023-03-10T14:23:19.278Z,4.67
2023-03-10T14:25:48.549Z,4.30
2023-03-10T14:28:24.314Z,4.80
2023-03-10T14:30:51.543Z,4.10
2023-03-10T14:33:19.562Z,4.37
2023-03-10T14:35:46.765Z,4.53
2023-03-10T14:38:14.205Z,4.17
2023-03-10T14:40:44.374Z,4.57
2023-03-10T14:43:18.570Z,4.37
2023-03-10T14:45:47.352Z,4.50
2023-03-10T14:48:21.094Z,3.97
2023-03-10T14:50:48.968Z,4.30
2023-03-10T14:53:19.713Z,4.13
2023-03-10T14:55:49.085Z,4.03
2023-03-10T14:58:20.853Z,4.70
2023-03-10T15:00:48.540Z,5.17
2023-03-10T15:03:16.321Z,4.57
2023-03-10T15:05:48.738Z,5.30
2023-03-10T15:08:17.818Z,5.33
2023-03-10T15:10:53.768Z,4.97
2023-03-10T15:13:24.149Z,4.87
2023-03-10T15:15:51.711Z,5.10
2023-03-10T15:18:21.251Z,5.20
2023-03-10T15:20:48.945Z,4.17
2023-03-10T15:23:20.035Z,5.00
2023-03-10T15:25:47.490Z,5.00
2023-03-10T15:28:14.782Z,4.67
2023-03-10T15:30:41.856Z,4.80
2023-03-10T15:33:10.805Z,4.87
2023-03-10T15:35:40.049Z,3.93
2023-03-10T15:38:07.706Z,4.50
2023-03-10T15:40:35.557Z,4.50
2023-03-10T15:43:02.846Z,4.50
2023-03-10T15:45:31.348Z,4.57
2023-03-10T15:47:58.761Z,4.13
2023-03-10T15:50:26.141Z,4.07
2023-03-10T15:52:58.656Z,3.90
2023-03-10T15:55:27.004Z,4.10
2023-03-10T15:57:56.599Z,3.33
2023-03-10T16:00:24.993Z,2.80
2023-03-10T16:02:52.280Z,3.20
2023-03-10T16:05:19.767Z,2.93
2023-03-10T16:07:47.215Z,3.00
2023-03-10T16:10:17.074Z,3.23
2023-03-10T16:12:44.570Z,3.10
2023-03-10T16:15:12.423Z,3.40
2023-03-10T16:17:40.157Z,3.73
2023-03-10T16:20:12.108Z,3.90
2023-03-10T16:22:41.502Z,3.97
2023-03-10T16:25:12.021Z,3.60
2023-03-10T16:27:39.309Z,3.90
2023-03-10T16:30:08.085Z,4.20
2023-03-10T16:33:00.763Z,4.27
2023-03-10T16:35:28.104Z,5.37
2023-03-10T16:38:35.278Z,5.33
2023-03-10T16:41:03.434Z,4.83
2023-03-10T16:43:32.361Z,5.00
2023-03-10T16:46:10.232Z,5.13
2023-03-10T16:48:43.577Z,5.13
2023-03-10T16:51:22.857Z,4.60
2023-03-10T16:53:51.123Z,5.90
2023-03-10T16:56:18.504Z,5.43
2023-03-10T16:58:46.007Z,5.07
2023-03-10T17:01:13.468Z,6.93
2023-03-10T17:03:40.992Z,5.93
2023-03-10T17:06:14.282Z,5.87
2023-03-10T17:08:42.350Z,5.47
2023-03-10T17:11:22.022Z,5.83
2023-03-10T17:13:53.201Z,6.30
2023-03-10T17:16:23.448Z,5.80
2023-03-10T17:18:51.262Z,6.13
2023-03-10T17:21:21.655Z,5.33
2023-03-10T17:23:49.949Z,4.00
2023-03-10T17:26:18.388Z,4.47
2023-03-10T17:28:48.445Z,5.60
2023-03-10T17:31:20.615Z,5.50
2023-03-10T17:33:48.012Z,5.43
2023-03-10T17:36:17.074Z,5.60
2023-03-10T17:38:45.558Z,5.33
2023-03-10T17:41:15.520Z,5.60
2023-03-10T17:43:42.936Z,5.00
2023-03-10T17:46:16.677Z,5.87
2023-03-10T17:48:44.568Z,5.73
2023-03-10T17:51:16.804Z,5.30
2023-03-10T17:53:45.093Z,5.03
2023-03-10T17:56:13.492Z,5.20
2023-03-10T17:58:41.121Z,6.47
2023-03-10T18:01:20.742Z,6.03
2023-03-10T18:03:48.769Z,4.57
2023-03-10T18:06:18.577Z,6.37
2023-03-10T18:08:46.326Z,5.90
2023-03-10T18:11:13.466Z,5.70
2023-03-10T18:13:40.928Z,5.93
2023-03-10T18:16:14.283Z,5.03
2023-03-10T18:18:41.688Z,5.20
2023-03-10T18:21:09.652Z,5.40
2023-03-10T18:23:36.923Z,4.17
2023-03-10T18:26:12.124Z,5.30
2023-03-10T18:28:40.254Z,6.47
2023-03-10T18:31:25.652Z,5.40
2023-03-10T18:33:53.160Z,6.10
2023-03-10T18:36:23.268Z,6.30
2023-03-10T18:38:51.256Z,11.93
2023-03-10T18:41:24.922Z,8.60
2023-03-10T18:43:53.344Z,10.60
2023-03-10T18:46:20.774Z,11.03
2023-03-10T18:48:48.403Z,14.37
2023-03-10T18:51:15.947Z,10.60
2023-03-10T18:53:43.280Z,8.87
2023-03-10T18:56:10.471Z,9.53
2023-03-10T18:58:37.859Z,9.70
2023-03-10T19:01:11.159Z,11.40
2023-03-10T19:03:39.056Z,11.43
2023-03-10T19:06:06.747Z,11.23
2023-03-10T19:08:38.855Z,10.40
2023-03-10T19:11:07.079Z,9.37
2023-03-10T19:13:35.686Z,8.40
2023-03-10T19:16:07.441Z,9.13
2023-03-10T19:18:35.906Z,10.33
2023-03-10T19:21:03.900Z,9.97
2023-03-10T19:23:32.260Z,8.77
2023-03-10T19:25:59.301Z,11.50
2023-03-10T19:28:27.455Z,10.93
2023-03-10T19:30:54.502Z,23.70
2023-03-10T19:33:21.802Z,22.97
2023-03-10T19:35:49.833Z,23.83
2023-03-10T19:38:17.101Z,14.80
2023-03-10T19:40:46.683Z,20.40
2023-03-10T19:43:14.000Z,14.20
2023-03-10T19:45:40.960Z,11.57
2023-03-10T19:48:08.293Z,20.37
2023-03-10T19:50:35.220Z,20.83
2023-03-10T19:53:02.461Z,18.73
2023-03-10T19:55:29.697Z,18.17
2023-03-10T19:57:57.274Z,16.40
2023-03-10T20:00:30.989Z,15.67
2023-03-10T20:03:00.308Z,16.30
2023-03-10T20:05:27.396Z,15.90
2023-03-10T20:07:54.852Z,17.37
2023-03-10T20:10:21.912Z,17.33
2023-03-10T20:12:51.218Z,21.83
2023-03-10T20:15:18.789Z,23.83
2023-03-10T20:17:46.762Z,25.60
2023-03-10T20:20:15.384Z,23.60
2023-03-10T20:22:45.694Z,22.50
2023-03-10T20:25:15.464Z,25.13
2023-03-10T20:27:42.970Z,24.87
2023-03-10T20:30:15.737Z,27.53
2023-03-10T20:32:43.542Z,20.27
2023-03-10T20:35:11.310Z,20.73
2023-03-10T20:37:38.703Z,26.33
2023-03-10T20:40:06.647Z,22.00
2023-03-10T20:42:34.496Z,24.67
2023-03-10T20:45:02.595Z,21.87
2023-03-10T20:47:29.874Z,20.80
2023-03-10T20:49:57.404Z,25.60
2023-03-10T20:52:24.678Z,25.47
2023-03-10T20:54:54.589Z,24.70
2023-03-10T20:57:22.060Z,21.53
2023-03-10T20:59:49.176Z,24.03
2023-03-10T21:02:18.244Z,21.83
2023-03-10T21:04:45.980Z,22.90
2023-03-10T21:07:13.544Z,23.27
2023-03-10T21:09:40.587Z,23.60
2023-03-10T21:12:08.157Z,27.20
2023-03-10T21:14:35.162Z,27.50
2023-03-10T21:17:03.228Z,26.27
2023-03-10T21:19:30.365Z,27.93
2023-03-10T21:21:57.583Z,26.70
2023-03-10T21:24:24.549Z,26.10
2023-03-10T21:26:51.803Z,24.73
2023-03-10T21:29:18.890Z,25.80
2023-03-10T21:31:46.102Z,22.57
2023-03-10T21:34:13.129Z,23.93
2023-03-10T21:36:40.437Z,23.03
2023-03-10T21:39:09.076Z,22.37
2023-03-10T21:41:36.935Z,22.30
2023-03-10T21:44:04.360Z,23.90
2023-03-10T21:46:32.139Z,23.83
2023-03-10T21:48:59.131Z,23.03
2023-03-10T21:51:27.023Z,23.10
2023-03-10T21:53:54.622Z,20.83
2023-03-10T21:56:23.395Z,21.57
2023-03-10T21:58:50.362Z,22.40
2023-03-10T22:01:18.531Z,22.97
2023-03-10T22:03:45.781Z,23.17
2023-03-10T22:06:13.003Z,24.10
2023-03-10T22:08:40.077Z,23.43
2023-03-10T22:11:08.754Z,22.20
2023-03-10T22:13:37.284Z,23.47
2023-03-10T22:16:07.192Z,23.70
2023-03-10T22:18:34.509Z,21.53
2023-03-10T22:21:01.824Z,23.37
2023-03-10T22:23:28.880Z,22.93
2023-03-10T22:25:56.287Z,22.33
2023-03-10T22:28:23.531Z,23.77
2023-03-10T22:30:50.761Z,23.27
2023-03-10T22:33:17.735Z,25.10
2023-03-10T22:35:51.549Z,22.57
2023-03-10T22:38:20.222Z,23.60
2023-03-10T22:40:47.963Z,21.83
2023-03-10T22:43:15.306Z,21.87
2023-03-10T22:45:42.672Z,20.67
2023-03-10T22:48:10.285Z,19.43
2023-03-10T22:50:40.337Z,19.30
2023-03-10T22:53:12.908Z,20.40
2023-03-10T22:55:42.495Z,20.43
2023-03-10T22:58:11.250Z,19.70
2023-03-10T23:00:39.756Z,20.77
2023-03-10T23:03:07.518Z,20.13
2023-03-10T23:05:34.831Z,19.83
2023-03-10T23:08:01.847Z,19.63
2023-03-10T23:10:31.764Z,19.87
2023-03-10T23:13:00.899Z,20.40
2023-03-10T23:15:34.194Z,19.20
2023-03-10T23:18:01.448Z,18.57
2023-03-10T23:20:31.521Z,18.40
2023-03-10T23:23:00.207Z,18.67
2023-03-10T23:25:32.375Z,19.27
2023-03-10T23:28:00.272Z,17.73
2023-03-10T23:30:28.946Z,16.60
2023-03-10T23:32:56.692Z,16.07
2023-03-10T23:35:27.376Z,15.07
2023-03-10T23:37:54.482Z,15.37
2023-03-10T23:40:23.899Z,14.27
2023-03-10T23:42:50.873Z,13.37
2023-03-10T23:45:21.167Z,13.20
2023-03-10T23:47:49.776Z,12.73
2023-03-10T23:50:21.553Z,13.03
2023-03-10T23:52:49.274Z,13.50
2023-03-10T23:55:20.879Z,12.50
2023-03-10T23:57:48.313Z,13.17
